createdAt,value
2019-04-22T00:00:16.691Z,3.20
2019-04-22T00:02:51.537Z,2.97
2019-04-22T00:05:39.558Z,3.43
2019-04-22T00:08:18.153Z,2.87
2019-04-22T00:10:49.719Z,3.33
2019-04-22T00:13:21.900Z,3.00
2019-04-22T00:15:41.871Z,3.10
2019-04-22T00:18:40.386Z,3.10
2019-04-22T00:20:58.274Z,2.83
2019-04-22T00:23:23.467Z,3.17
2019-04-22T00:26:05.238Z,2.53
2019-04-22T00:28:33.470Z,3.33
2019-04-22T00:31:09.835Z,2.93
2019-04-22T00:33:43.776Z,2.80
2019-04-22T00:36:12.762Z,2.30
2019-04-22T00:38:44.193Z,2.70
2019-04-22T00:41:17.116Z,2.97
2019-04-22T00:43:53.044Z,3.27
2019-04-22T00:46:19.325Z,2.97
2019-04-22T00:49:28.622Z,2.90
2019-04-22T00:51:44.869Z,3.43
2019-04-22T00:54:03.535Z,2.73
2019-04-22T00:56:27.741Z,3.27
2019-04-22T00:59:01.527Z,3.00
2019-04-22T01:01:32.113Z,2.60
2019-04-22T01:06:35.783Z,3.27
2019-04-22T01:09:25.097Z,3.10
2019-04-22T01:11:37.674Z,3.00
2019-04-22T01:14:06.593Z,3.20
2019-04-22T01:16:42.947Z,2.90
2019-04-22T01:19:14.732Z,3.00
2019-04-22T01:21:44.872Z,2.60
2019-04-22T01:24:17.848Z,3.03
2019-04-22T01:26:43.431Z,3.10
2019-04-22T01:29:12.235Z,3.03
2019-04-22T01:31:36.599Z,3.10
2019-04-22T01:34:16.020Z,3.10
2019-04-22T01:36:55.470Z,3.00
2019-04-22T01:39:37.414Z,2.67
2019-04-22T01:42:27.210Z,2.90
2019-04-22T01:47:21.397Z,3.07
2019-04-22T01:49:47.597Z,2.73
2019-04-22T01:55:11.029Z,3.40
2019-04-22T01:57:27.019Z,3.20
2019-04-22T01:59:45.771Z,2.80
2019-04-22T02:02:31.052Z,3.17
2019-04-22T02:04:59.951Z,2.87
2019-04-22T02:07:30.512Z,2.80
2019-04-22T02:10:05.312Z,3.00
2019-04-22T02:15:06.083Z,2.87
2019-04-22T02:17:51.754Z,2.60
2019-04-22T02:20:12.320Z,2.83
2019-04-22T02:23:17.599Z,3.03
2019-04-22T02:25:32.280Z,2.70
2019-04-22T02:28:11.231Z,2.83
2019-04-22T02:30:49.896Z,3.00
2019-04-22T02:33:31.673Z,2.60
2019-04-22T02:35:59.903Z,2.83
2019-04-22T02:38:26.243Z,3.30
2019-04-22T02:41:13.510Z,2.97
2019-04-22T02:43:41.582Z,3.13
2019-04-22T02:46:03.557Z,2.87
2019-04-22T02:48:34.009Z,2.90
2019-04-22T02:53:46.782Z,2.90
2019-04-22T03:01:18.259Z,2.63
2019-04-22T03:06:18.309Z,2.63
2019-04-22T03:08:43.328Z,2.70
2019-04-22T03:11:22.351Z,2.50
2019-04-22T03:16:27.087Z,2.60
2019-04-22T03:21:17.596Z,2.80
2019-04-22T03:24:17.570Z,2.67
2019-04-22T03:26:27.345Z,2.80
2019-04-22T03:28:54.836Z,2.97
2019-04-22T03:32:12.972Z,2.80
2019-04-22T03:39:39.359Z,2.40
2019-04-22T03:52:10.715Z,2.93
2019-04-22T03:54:49.880Z,3.03
2019-04-22T03:59:56.822Z,2.80
2019-04-22T04:02:21.442Z,2.80
2019-04-22T04:04:41.593Z,2.97
2019-04-22T04:12:25.000Z,3.13
2019-04-22T04:15:06.064Z,2.90
2019-04-22T04:17:28.934Z,2.80
2019-04-22T04:20:26.260Z,2.87
2019-04-22T04:37:52.365Z,2.90
2019-04-22T04:40:36.805Z,2.83
2019-04-22T04:47:54.537Z,2.70
2019-04-22T04:50:35.919Z,2.90
2019-04-22T04:58:13.922Z,2.50
2019-04-22T05:00:48.613Z,2.57
2019-04-22T05:03:10.643Z,2.40
2019-04-22T05:05:47.618Z,2.90
2019-04-22T05:08:12.805Z,2.53
2019-04-22T05:13:39.722Z,2.53
2019-04-22T05:16:06.158Z,2.53
2019-04-22T05:18:29.398Z,2.50
2019-04-22T05:20:59.715Z,2.57
2019-04-22T05:23:28.827Z,2.40
2019-04-22T05:25:57.622Z,2.77
2019-04-22T05:28:24.400Z,2.40
2019-04-22T05:31:00.522Z,2.60
2019-04-22T05:33:33.152Z,2.50
2019-04-22T05:36:01.571Z,2.63
2019-04-22T05:38:39.890Z,2.87
2019-04-22T05:41:02.766Z,2.87
2019-04-22T05:43:34.445Z,2.50
2019-04-22T05:46:09.171Z,2.30
2019-04-22T05:51:09.785Z,2.67
2019-04-22T05:53:47.765Z,2.80
2019-04-22T05:56:28.448Z,2.73
2019-04-22T05:58:52.699Z,2.47
2019-04-22T06:04:00.373Z,2.70
2019-04-22T06:06:22.591Z,2.33
2019-04-22T06:08:57.659Z,2.60
2019-04-22T06:11:29.488Z,2.67
2019-04-22T06:13:56.078Z,2.90
2019-04-22T06:16:43.103Z,2.47
2019-04-22T06:19:08.679Z,2.30
2019-04-22T06:21:46.294Z,2.40
2019-04-22T06:24:16.644Z,2.40
2019-04-22T06:29:19.616Z,2.63
2019-04-22T06:32:17.501Z,2.57
2019-04-22T06:36:59.883Z,2.93
2019-04-22T06:42:04.348Z,2.63
2019-04-22T06:44:32.298Z,2.80
2019-04-22T06:47:12.879Z,2.63
2019-04-22T06:49:35.955Z,2.70
2019-04-22T06:54:44.610Z,2.87
2019-04-22T06:57:13.808Z,2.87
2019-04-22T06:59:42.887Z,2.23
2019-04-22T07:02:16.640Z,2.90
2019-04-22T07:04:49.396Z,2.73
2019-04-22T07:07:21.540Z,2.43
2019-04-22T07:09:54.383Z,2.67
2019-04-22T07:12:24.325Z,2.43
2019-04-22T07:14:54.584Z,2.33
2019-04-22T07:19:55.559Z,2.33
2019-04-22T07:22:38.949Z,3.00
2019-04-22T07:25:06.524Z,2.20
2019-04-22T07:27:34.228Z,2.47
2019-04-22T07:30:15.173Z,2.60
2019-04-22T07:35:13.994Z,2.60
2019-04-22T07:37:47.090Z,2.97
2019-04-22T07:40:17.165Z,2.63
2019-04-22T07:42:49.082Z,2.30
2019-04-22T07:45:25.198Z,2.37
2019-04-22T07:48:02.823Z,2.43
2019-04-22T07:52:58.879Z,2.60
2019-04-22T07:55:32.531Z,2.90
2019-04-22T07:58:06.262Z,2.97
2019-04-22T08:03:12.097Z,2.67
2019-04-22T08:05:52.201Z,2.80
2019-04-22T08:08:19.699Z,2.93
2019-04-22T08:13:21.131Z,3.30
2019-04-22T08:15:56.896Z,2.97
2019-04-22T08:20:56.609Z,3.10
2019-04-22T08:25:58.860Z,2.60
2019-04-22T08:31:10.578Z,2.80
2019-04-22T08:33:35.419Z,2.93
2019-04-22T08:38:48.413Z,2.97
2019-04-22T08:41:22.947Z,3.07
2019-04-22T08:43:52.352Z,2.73
2019-04-22T08:46:24.160Z,2.70
2019-04-22T08:53:59.781Z,3.33
2019-04-22T08:59:03.077Z,2.80
2019-04-22T09:01:30.199Z,2.90
2019-04-22T09:04:04.037Z,2.63
2019-04-22T09:06:49.439Z,3.23
2019-04-22T09:09:06.205Z,3.07
2019-04-22T09:11:43.046Z,2.80
2019-04-22T09:14:14.054Z,3.00
2019-04-22T09:16:42.836Z,3.00
2019-04-22T09:19:12.198Z,3.00
2019-04-22T09:21:57.524Z,2.60
2019-04-22T09:24:21.355Z,2.73
2019-04-22T09:26:47.665Z,3.07
2019-04-22T09:32:01.679Z,2.57
2019-04-22T09:34:31.514Z,2.67
2019-04-22T09:37:06.210Z,2.60
2019-04-22T09:39:29.427Z,2.70
2019-04-22T09:42:17.357Z,3.33
2019-04-22T09:44:36.511Z,2.63
2019-04-22T09:47:06.231Z,2.77
2019-04-22T09:49:46.855Z,2.97
2019-04-22T09:52:12.841Z,2.30
2019-04-22T09:54:53.093Z,3.50
2019-04-22T09:57:15.592Z,2.87
2019-04-22T09:59:52.673Z,2.60
2019-04-22T10:04:54.105Z,3.30
2019-04-22T10:07:25.917Z,2.50
2019-04-22T10:12:32.164Z,2.70
2019-04-22T10:15:13.761Z,3.07
2019-04-22T10:17:32.246Z,3.20
2019-04-22T10:20:05.623Z,3.40
2019-04-22T10:22:44.014Z,2.97
2019-04-22T10:25:10.767Z,3.27
2019-04-22T10:27:39.751Z,3.20
2019-04-22T10:30:17.093Z,3.30
2019-04-22T10:32:44.689Z,3.33
2019-04-22T10:35:12.186Z,3.47
2019-04-22T10:37:38.642Z,3.47
2019-04-22T10:40:11.493Z,3.20
2019-04-22T10:42:43.122Z,3.10
2019-04-22T10:45:14.496Z,3.20
2019-04-22T10:47:45.757Z,3.53
2019-04-22T10:50:16.831Z,3.50
2019-04-22T10:52:47.765Z,3.60
2019-04-22T10:55:19.191Z,3.07
2019-04-22T10:57:50.736Z,3.70
2019-04-22T11:00:21.824Z,3.50
2019-04-22T11:02:51.520Z,3.60
2019-04-22T11:05:22.016Z,3.60
2019-04-22T11:07:59.031Z,3.67
2019-04-22T11:10:36.898Z,3.77
2019-04-22T11:12:59.232Z,3.83
2019-04-22T11:15:30.610Z,4.03
2019-04-22T11:18:05.249Z,3.43
2019-04-22T11:20:37.795Z,4.03
2019-04-22T11:23:08.832Z,3.67
2019-04-22T11:25:39.445Z,3.20
2019-04-22T11:28:11.759Z,3.57
2019-04-22T11:30:42.783Z,3.33
2019-04-22T11:33:14.301Z,3.43
2019-04-22T11:35:45.922Z,3.03
2019-04-22T11:38:17.065Z,3.23
2019-04-22T11:40:50.441Z,2.80
2019-04-22T11:43:19.941Z,2.90
2019-04-22T11:45:51.199Z,3.03
2019-04-22T11:48:21.461Z,2.30
2019-04-22T11:50:53.748Z,2.60
2019-04-22T11:53:25.281Z,2.77
2019-04-22T11:55:55.740Z,2.43
2019-04-22T11:58:26.592Z,2.45
2019-04-22T12:00:59.180Z,2.63
2019-04-22T12:03:29.536Z,2.47
2019-04-22T12:05:59.832Z,2.37
2019-04-22T12:08:31.101Z,3.02
2019-04-22T12:11:04.027Z,2.85
2019-04-22T12:13:33.690Z,2.47
2019-04-22T12:16:05.321Z,2.70
2019-04-22T12:18:37.409Z,2.83
2019-04-22T12:21:08.970Z,2.80
2019-04-22T12:23:39.354Z,2.75
2019-04-22T12:26:13.180Z,2.72
2019-04-22T12:28:41.222Z,2.75
2019-04-22T12:31:11.277Z,2.52
2019-04-22T12:33:41.358Z,2.75
2019-04-22T12:36:12.807Z,2.83
2019-04-22T12:38:42.790Z,3.00
2019-04-22T12:41:14.058Z,3.25
2019-04-22T12:43:47.204Z,3.12
2019-04-22T12:46:18.515Z,3.30
2019-04-22T12:48:49.883Z,3.70
2019-04-22T12:51:20.972Z,3.10
2019-04-22T12:53:50.969Z,3.22
2019-04-22T12:56:21.807Z,3.10
2019-04-22T12:58:53.986Z,3.20
2019-04-22T13:01:24.666Z,3.17
2019-04-22T13:04:01.670Z,3.10
2019-04-22T13:06:27.912Z,2.85
2019-04-22T13:08:58.289Z,3.20
2019-04-22T13:11:32.800Z,3.10
2019-04-22T13:14:02.963Z,2.70
2019-04-22T13:16:35.177Z,2.90
2019-04-22T13:19:11.317Z,2.95
2019-04-22T13:21:38.559Z,3.05
2019-04-22T13:24:09.115Z,3.00
2019-04-22T13:26:39.012Z,2.80
2019-04-22T13:29:10.685Z,3.02
2019-04-22T13:31:40.873Z,2.90
2019-04-22T13:34:21.404Z,3.70
2019-04-22T13:36:44.921Z,2.50
2019-04-22T13:39:14.621Z,3.20
2019-04-22T13:41:50.278Z,3.17
2019-04-22T13:44:18.858Z,3.00
2019-04-22T13:47:08.634Z,3.35
2019-04-22T13:49:55.741Z,3.70
2019-04-22T13:52:37.952Z,3.35
2019-04-22T13:57:15.831Z,2.80
2019-04-22T13:59:33.255Z,3.40
2019-04-22T14:02:17.029Z,3.33
2019-04-22T14:04:48.419Z,2.98
2019-04-22T14:07:19.059Z,3.30
2019-04-22T14:09:48.808Z,3.45
2019-04-22T14:12:21.305Z,3.60
2019-04-22T14:14:52.564Z,3.37
2019-04-22T14:17:23.217Z,3.70
2019-04-22T14:19:54.960Z,3.58
2019-04-22T14:22:26.265Z,3.40
2019-04-22T14:24:56.495Z,3.45
2019-04-22T14:27:39.726Z,3.62
2019-04-22T14:29:59.922Z,3.77
2019-04-22T14:32:31.876Z,3.85
2019-04-22T14:35:03.099Z,4.15
2019-04-22T14:37:34.108Z,3.60
2019-04-22T14:40:08.822Z,3.65
2019-04-22T14:42:56.852Z,4.25
2019-04-22T14:46:01.681Z,3.98
2019-04-22T14:48:07.106Z,3.72
2019-04-22T14:50:35.230Z,3.70
2019-04-22T14:53:03.981Z,4.17
2019-04-22T14:55:23.253Z,3.60
2019-04-22T14:57:49.012Z,3.35
2019-04-22T15:00:19.818Z,4.35
2019-04-22T15:02:49.931Z,3.72
2019-04-22T15:05:19.958Z,3.35
2019-04-22T15:07:49.861Z,3.17
2019-04-22T15:10:22.183Z,3.60
2019-04-22T15:12:55.367Z,3.65
2019-04-22T15:15:47.028Z,3.40
2019-04-22T15:18:31.630Z,3.33
2019-04-22T15:21:09.342Z,3.35
2019-04-22T15:23:40.447Z,3.00
2019-04-22T15:26:10.955Z,3.25
2019-04-22T15:28:41.769Z,3.33
2019-04-22T15:31:13.270Z,2.92
2019-04-22T15:33:48.010Z,3.62
2019-04-22T15:36:18.011Z,2.95
2019-04-22T15:38:49.252Z,3.02
2019-04-22T15:41:19.132Z,3.40
2019-04-22T15:43:49.861Z,3.00
2019-04-22T15:46:20.282Z,2.92
2019-04-22T15:48:49.976Z,3.08
2019-04-22T15:51:20.713Z,2.95
2019-04-22T15:53:51.939Z,3.33
2019-04-22T15:56:22.931Z,3.02
2019-04-22T15:58:53.520Z,3.72
2019-04-22T16:01:28.820Z,3.22
2019-04-22T16:03:56.546Z,3.17
2019-04-22T16:06:26.386Z,3.37
2019-04-22T16:08:56.161Z,2.95
2019-04-22T16:11:27.600Z,3.22
2019-04-22T16:13:57.581Z,3.10
2019-04-22T16:16:28.372Z,3.10
2019-04-22T16:19:00.633Z,3.42
2019-04-22T16:21:41.668Z,3.20
2019-04-22T16:24:22.431Z,3.58
2019-04-22T16:27:02.445Z,3.25
2019-04-22T16:29:33.481Z,3.25
2019-04-22T16:32:03.269Z,3.17
2019-04-22T16:34:33.991Z,3.22
2019-04-22T16:37:05.016Z,3.85
2019-04-22T16:39:36.453Z,3.60
2019-04-22T16:42:06.993Z,3.47
2019-04-22T16:44:38.825Z,3.85
2019-04-22T16:47:09.921Z,3.75
2019-04-22T16:49:39.760Z,3.47
2019-04-22T16:52:12.064Z,3.92
2019-04-22T16:54:44.487Z,4.22
2019-04-22T16:57:15.883Z,4.22
2019-04-22T16:59:46.584Z,4.62
2019-04-22T17:02:34.831Z,3.95
2019-04-22T17:05:18.027Z,4.65
2019-04-22T17:07:48.193Z,4.17
2019-04-22T17:10:19.997Z,4.00
2019-04-22T17:12:59.511Z,3.92
2019-04-22T17:15:22.578Z,4.30
2019-04-22T17:17:53.269Z,4.05
2019-04-22T17:20:23.129Z,4.00
2019-04-22T17:22:53.490Z,3.87
2019-04-22T17:25:24.610Z,3.70
2019-04-22T17:27:55.225Z,3.97
2019-04-22T17:30:26.425Z,4.60
2019-04-22T17:32:56.864Z,4.10
2019-04-22T17:35:28.262Z,4.20
2019-04-22T17:38:08.821Z,3.87
2019-04-22T17:40:49.205Z,4.78
2019-04-22T17:43:36.623Z,4.60
2019-04-22T17:46:10.896Z,4.55
2019-04-22T17:49:12.236Z,4.50
2019-04-22T17:52:00.586Z,4.37
2019-04-22T17:54:17.066Z,4.57
2019-04-22T17:56:49.672Z,4.60
2019-04-22T17:59:20.386Z,4.97
2019-04-22T18:01:43.595Z,4.63
2019-04-22T18:04:04.423Z,5.00
2019-04-22T18:06:55.389Z,5.10
2019-04-22T18:09:42.170Z,4.43
2019-04-22T18:12:05.765Z,4.73
2019-04-22T18:14:47.973Z,4.37
2019-04-22T18:17:07.082Z,4.73
2019-04-22T18:19:36.348Z,4.77
2019-04-22T18:22:02.542Z,5.00
2019-04-22T18:24:28.108Z,5.00
2019-04-22T18:27:19.782Z,5.37
2019-04-22T18:29:43.425Z,5.33
2019-04-22T18:32:07.557Z,4.93
2019-04-22T18:34:39.871Z,5.17
2019-04-22T18:37:18.158Z,5.27
2019-04-22T18:39:58.316Z,4.83
2019-04-22T18:42:23.879Z,5.23
2019-04-22T18:45:21.749Z,5.10
2019-04-22T18:47:24.864Z,5.37
2019-04-22T18:49:59.264Z,5.13
2019-04-22T18:53:03.688Z,5.10
2019-04-22T18:55:49.057Z,5.03
2019-04-22T18:58:19.140Z,4.90
2019-04-22T19:00:37.333Z,5.83
2019-04-22T19:03:16.052Z,5.07
2019-04-22T19:06:10.672Z,4.90
2019-04-22T19:08:31.499Z,5.40
2019-04-22T19:11:11.134Z,5.33
2019-04-22T19:16:25.574Z,5.37
2019-04-22T19:19:17.104Z,5.37
2019-04-22T19:21:13.588Z,5.90
2019-04-22T19:23:44.971Z,5.87
2019-04-22T19:26:25.676Z,5.70
2019-04-22T19:28:49.745Z,5.47
2019-04-22T19:31:27.141Z,5.73
2019-04-22T19:33:54.456Z,5.47
2019-04-22T19:36:25.772Z,5.83
2019-04-22T19:38:52.699Z,5.40
2019-04-22T19:41:29.181Z,5.80
2019-04-22T19:44:05.624Z,5.43
2019-04-22T19:46:28.202Z,5.43
2019-04-22T19:49:06.583Z,5.70
2019-04-22T19:51:47.524Z,6.03
2019-04-22T19:54:12.545Z,5.60
2019-04-22T19:56:26.487Z,5.50
2019-04-22T19:59:08.724Z,5.50
2019-04-22T20:01:49.810Z,5.37
2019-04-22T20:04:36.392Z,5.23
2019-04-22T20:07:08.449Z,5.23
2019-04-22T20:09:43.704Z,5.40
2019-04-22T20:12:10.595Z,5.47
2019-04-22T20:14:46.200Z,5.73
2019-04-22T20:17:21.780Z,5.47
2019-04-22T20:19:57.770Z,6.10
2019-04-22T20:22:17.509Z,5.93
2019-04-22T20:24:44.799Z,5.73
2019-04-22T20:27:33.212Z,5.80
2019-04-22T20:29:58.896Z,6.00
2019-04-22T20:32:32.374Z,6.60
2019-04-22T20:35:04.075Z,6.07
2019-04-22T20:37:38.491Z,6.00
2019-04-22T20:40:05.780Z,6.00
2019-04-22T20:42:46.777Z,5.57
2019-04-22T20:45:13.137Z,5.67
2019-04-22T20:47:34.475Z,5.90
2019-04-22T20:50:14.108Z,5.83
2019-04-22T20:52:55.486Z,6.50
2019-04-22T20:55:15.330Z,5.20
2019-04-22T20:57:57.849Z,6.53
2019-04-22T21:00:13.817Z,6.27
2019-04-22T21:02:46.587Z,6.00
2019-04-22T21:05:22.587Z,5.97
2019-04-22T21:08:02.944Z,6.77
2019-04-22T21:10:23.117Z,6.00
2019-04-22T21:13:00.102Z,5.50
2019-04-22T21:15:40.813Z,5.97
2019-04-22T21:18:05.536Z,6.13
2019-04-22T21:20:43.201Z,6.07
2019-04-22T21:23:14.981Z,6.43
2019-04-22T21:25:37.175Z,6.30
2019-04-22T21:28:21.425Z,6.43
2019-04-22T21:30:48.164Z,6.70
2019-04-22T21:33:15.185Z,6.40
2019-04-22T21:36:12.149Z,6.73
2019-04-22T21:38:26.433Z,6.90
2019-04-22T21:40:56.396Z,5.90
2019-04-22T21:43:30.524Z,6.57
2019-04-22T21:46:04.855Z,6.50
2019-04-22T21:48:37.194Z,6.93
2019-04-22T21:51:04.919Z,6.53
2019-04-22T21:53:43.545Z,6.20
2019-04-22T21:56:25.374Z,6.00
2019-04-22T21:59:06.613Z,6.40
2019-04-22T22:01:49.469Z,5.80
2019-04-22T22:04:14.871Z,6.67
2019-04-22T22:06:37.986Z,6.30
2019-04-22T22:09:22.866Z,6.33
2019-04-22T22:11:46.264Z,6.10
2019-04-22T22:14:19.571Z,6.47
2019-04-22T22:16:47.210Z,5.93
2019-04-22T22:19:23.959Z,6.23
2019-04-22T22:22:28.052Z,6.10
2019-04-22T22:24:36.999Z,6.43
2019-04-22T22:27:04.068Z,6.20
2019-04-22T22:30:05.583Z,6.17
2019-04-22T22:32:11.636Z,5.90
2019-04-22T22:34:39.492Z,6.47
2019-04-22T22:37:06.348Z,7.17
2019-04-22T22:39:38.062Z,6.67
2019-04-22T22:41:57.668Z,6.53
2019-04-22T22:44:36.271Z,6.40
2019-04-22T22:47:18.269Z,6.70
2019-04-22T22:49:53.375Z,6.67
2019-04-22T22:52:45.232Z,6.43
2019-04-22T22:54:57.524Z,6.33
2019-04-22T22:57:33.764Z,6.23
2019-04-22T23:00:01.786Z,6.63
2019-04-22T23:02:34.080Z,6.53
2019-04-22T23:05:06.098Z,6.40
2019-04-22T23:07:40.931Z,6.37
2019-04-22T23:10:10.023Z,6.60
2019-04-22T23:12:48.868Z,6.40
2019-04-22T23:15:12.379Z,6.50
2019-04-22T23:17:26.699Z,6.80
2019-04-22T23:19:57.898Z,7.13
2019-04-22T23:22:36.151Z,7.13
2019-04-22T23:25:22.340Z,6.33
2019-04-22T23:28:00.026Z,7.33
2019-04-22T23:30:38.258Z,6.63
2019-04-22T23:33:24.555Z,6.77
2019-04-22T23:35:56.355Z,6.40
2019-04-22T23:38:33.803Z,6.50
2019-04-22T23:41:05.483Z,7.47
2019-04-22T23:43:44.833Z,7.23
2019-04-22T23:46:08.328Z,7.00
2019-04-22T23:48:35.250Z,7.43
2019-04-22T23:51:13.649Z,6.80
2019-04-22T23:56:23.893Z,7.97
2019-04-22T23:59:04.731Z,8.00
